Aérodrome :
LOGIN :

S'inscrire | Disclaimer

   EN    FR    IT 

 










Légende :    VFR   VFR Marginal   IFR   IFR Intensif   IFR Très Intensif
Visi : 
Plafond : 
>= 8 km
>= 3000ft
5 à 8 km
1000 à 3000 ft
1500m à 5 km
500 à 1000 ft
800 à 1500m
200 à 500 ft
< 800m
< 200 ft
Symboles :   Orages  Brouillard  Fortes neiges  Fortes précipitations  Vent > 20 kt
SIGMETs :   Divers  Orages  Givrage  Turbulence  Onde Orograph.  Cendres Volcan.






- Altitude de l'aérodrome : 741 ft
- Code IATA : JKG


ESGJ - Jönköping

DERNIER METAR :
  • 181750Z AUTO 22010KT 7000 DZ SCT007/// BKN009/// OVC016/// 03/03 Q1008

METARs EXPIRÉS :
  • 181720Z AUTO 22011KT 5000 BR BKN007/// OVC013/// 03/03 Q1008 RERA
  • 181650Z AUTO 22013KT 7000 BR BKN007/// OVC009/// 03/03 Q1007
  • 181620Z AUTO 22015KT 7000 DZ BKN007/// OVC016/// 03/03 Q1007 RERA
  • 181550Z AUTO 22015KT 9999 OVC009/// 03/03 Q1006 REDZ
  • 181520Z AUTO 22014KT 9999 DZ BKN008/// BKN014/// OVC018/// 03/03 Q1006 REDZ

Prévision TAF périmée.



MET'MAP, la Météo Aéronautique d'un coup d'oeil ! - Copyright ORBIFLY Décembre 2007 - Disclaimer

ORBIFLY MET'MAP TEAM :

Programmation & Développement : Alexandra Zaïnal
Sur une idée originale de : Baudouin d'Aumeries
Assistance à la programmation : Marc-Olivier Méhu
Soutien technique & logistique : Manuel Goepfert

Contact : metmap@orbifly.com




SOURCES & CREDITS :

   NOAA